ADDS METAR Data INFO
IDs: Format: Raw Decoded Include TAF

Data at: 0839 UTC 21 Oct 2017

KTRM 210752Z AUTO 33021G30KT 10SM CLR 22/11 A2982 RMK AO2 PK WND 32030/0744 SLP099 T02220106 403060222
KTRM 210652Z AUTO 33019G24KT 10SM CLR 22/11 A2979 RMK AO2 PK WND 34029/0614 SLP098 T02220106
KTRM 210552Z AUTO 34015KT 10SM CLR 22/11 A2978 RMK AO2 PK WND 34026/0455 SLP087 T02220111 10278 20222 53022
KTRM 210452Z AUTO 34019G27KT 10SM CLR 23/11 A2976 RMK AO2 PK WND 34029/0437 SLP080 T02280111
KTRM 210352Z AUTO 34020G26KT 10SM CLR 23/11 A2973 RMK AO2 PK WND 35026/0351 SLP071 T02330111
KTRM 210252Z AUTO 34016G27KT 10SM CLR 24/11 A2972 RMK AO2 PK WND 34028/0213 SLP065 T02440106 53009
KTRM 210152Z AUTO 34017KT 10SM CLR 25/09 A2970 RMK AO2 PK WND 32030/0120 SLP059 T02500094
KTRM 210052Z AUTO 32017G26KT 10SM CLR 27/09 A2968 RMK AO2 PK WND 33028/2354 SLP053 T02670089
KTRM 202352Z AUTO 34020G29KT 6SM HZ CLR 28/09 A2969 RMK AO2 PK WND 34029/2350 SLP065 T02780089 10306 20278 55003
KTRM 202252Z AUTO 35018G28KT 6SM HZ CLR 29/08 A2969 RMK AO2 PK WND 35030/2231 SLP055 T02940078
KTRM 202152Z AUTO 35019G24KT 10SM CLR 31/08 A2969 RMK AO2 SLP057 T03060078
KTRM 202052Z AUTO 35015KT 10SM CLR 30/08 A2970 RMK AO2 SLP059 T03000078 58021
KTRM 201952Z AUTO 36010G21KT 310V020 10SM CLR 29/08 A2973 RMK AO2 SLP070 T02940083
KTRM 201852Z AUTO 36012KT 10SM CLR 28/09 A2976 RMK AO2 SLP078 T02830094
KTRM 201752Z AUTO 35013KT 10SM CLR 28/11 A2976 RMK AO2 SLP080 T02780106 10278 20228 50002
KTRM 201652Z AUTO 33017G22KT 10SM CLR 26/12 A2977 RMK AO2 PK WND 34028/1615 SLP084 T02610117
KTRM 201552Z AUTO 34020G30KT 10SM CLR 25/12 A2977 RMK AO2 PK WND 35030/1545 SLP092 T02500122
KTRM 201452Z AUTO 35018G23KT 10SM CLR 24/12 A2976 RMK AO2 PK WND 33029/1354 SLP078 T02390122 53013
KTRM 201352Z AUTO 34022G28KT 8SM CLR 23/12 A2973 RMK AO2 PK WND 34028/1351 SLP079 T02280122
KTRM 201252Z AUTO 34009KT 10SM CLR 23/12 A2971 RMK AO2 SLP064 T02280122
KTRM 201152Z AUTO 33015KT 10SM CLR 23/12 A2972 RMK AO2 SLP066 T02280122 10256 20228 55000
KTRM 201052Z AUTO 34015G23KT 10SM CLR 23/12 A2971 RMK AO2 PK WND 35028/1011 SLP063 T02280122
KTRM 200952Z AUTO 34017G27KT 10SM CLR 24/12 A2971 RMK AO2 PK WND 34028/0922 SLP061 T02390117
KTRM 200852Z AUTO 32017G24KT 9SM CLR 23/12 A2972 RMK AO2 PK WND 33026/0816 SLP066 T02330122 53004
KTRM 200752Z AUTO 33014KT 10SM CLR 24/12 A2969 RMK AO2 SLP056 T02390117 403440172
KTRM 200652Z AUTO 34014G22KT 10SM CLR 25/11 A2970 RMK AO2 PK WND 34027/0606 SLP060 T02500111
KTRM 200552Z AUTO 34015G22KT 10SM CLR 25/12 A2971 RMK AO2 SLP062 T02500117 10311 20250 52008
KTRM 200452Z AUTO 34019G24KT 10SM CLR 26/11 A2970 RMK AO2 SLP060 T02610111
KTRM 200352Z AUTO 34016G21KT 9SM CLR 26/12 A2969 RMK AO2 PK WND 34026/0337 SLP065 T02610122
KTRM 200252Z AUTO 34016KT 7SM CLR 28/11 A2969 RMK AO2 SLP053 T02780111 53009
KTRM 200152Z AUTO 34011KT 10SM CLR 28/09 A2967 RMK AO2 SLP048 T02830089
KTRM 200052Z AUTO 33010G16KT 10SM CLR 31/07 A2966 RMK AO2 SLP046 T03060072
KTRM 192352Z AUTO 00000KT 10SM CLR 30/13 A2966 RMK AO2 SLP045 T03000128 10344 20300 56009
KTRM 192252Z AUTO 15006KT 10SM CLR 32/10 A2966 RMK AO2 SLP047 T03170100
KTRM 192152Z AUTO 13006KT 10SM CLR 32/09 A2967 RMK AO2 SLP049 T03220094
KTRM 192052Z AUTO 17008KT 10SM CLR 33/12 A2968 RMK AO2 SLP054 T03280122 58024